Aeroporto :
LOGIN :

Iscrizione | Disclaimer

   EN    FR    IT 

 










Sommario :    VFR   VFR Marginale   IFR   IFR Intensivo   IFR Molto Intensivo
Visibilità : 
Base nubi : 
>= 8 km
>= 3000ft
5 / 8 km
1000 / 3000 ft
1500m / 5 km
500 / 1000 ft
800 / 1500m
200 / 500 ft
< 800m
< 200 ft
Simboli :   Temporali  Nebbia  Neve Forte  Precipitazioni Forti  Vento > 20 kt
SIGMETs :   Varie  Temporali  Ghiacco  Turbolenza  Onda orograficha  Ceneri Vulcaniche






- Altitudine del aeroporto : 170 ft
- Codice IATA : BGO


ENBR - Bergen , Flesland

ULTIMO METAR :
  • 231520Z 15010KT 9999 VCSH FEW007 SCT012 BKN020 06/05 Q1011 TEMPO 4000 RADZ BKN012 RMK WIND 1200FT 16014KT

METARs OBSOLETI :
  • 231450Z 15009KT 9999 8000N -SHRA FEW008 SCT015CB BKN022 06/05 Q1012 TEMPO 4000 RADZ BKN012 RMK WIND 1200FT 18014KT
  • 231420Z 14008KT 9999 -SHRA FEW007 SCT018CB BKN028 06/04 Q1012 TEMPO 4000 RADZ BKN012 RMK WIND 1200FT 16012KT
  • 231350Z 13009KT 9999 -SHRA FEW008 SCT018CB BKN025 05/04 Q1012 TEMPO 4000 RADZ BKN012 RMK WIND 1200FT 15011KT
  • 231320Z 15006KT 9999 VCSH FEW008 FEW015CB BKN025 05/04 Q1013 TEMPO SHRA RMK WIND 1200FT 21010KT
  • 231250Z 14005KT 9999 -SHRA FEW010 FEW015CB SCT025 BKN050 05/04 Q1013 NOSIG RMK WIND 1200FT 17008KT

TAF TAF ENBR
Valido dal 23 a 12 ore il 24 a 12 ore UTC


2312/2412 15012KT 9999 FEW015 BKN030
TEMPO 2315/2321 4000 RADZ BKN012
BECMG 2316/2318 19018G28KT
BECMG 2319/2321 BKN012
TEMPO 2321/2406 2500 RADZ BR BKN008
BECMG 2402/2404 23012KT
BECMG 2406/2408 BKN020



MetMap, La meteo Aeronautica in un colpo d'occhio ! - Copyright ORBIFLY Dicembre 2007 - Disclaimer

ORBIFLY MET'MAP TEAM :

Programmazione e sviluppo : Alexandra Zaïnal
Concezione : Baudouin d'Aumeries
Aiuto per la programmazione : Marc-Olivier Méhu
Supporto tecnico e logistico : Manuel Goepfert
Aiuto per la traduzione : Arnaldo La Scala

Contatto : metmap@orbifly.com




FONTI E CREDITI :

   NOAA